createdAt,value
2022-07-26T00:00:53.074Z,6.05
2022-07-26T00:03:20.580Z,6.80
2022-07-26T00:05:48.160Z,6.60
2022-07-26T00:08:15.765Z,6.70
2022-07-26T00:10:51.590Z,6.05
2022-07-26T00:13:21.243Z,6.70
2022-07-26T00:15:49.628Z,6.97
2022-07-26T00:18:17.927Z,7.40
2022-07-26T00:20:45.890Z,6.78
2022-07-26T00:23:14.664Z,7.32
2022-07-26T00:25:42.421Z,6.55
2022-07-26T00:28:10.034Z,6.95
2022-07-26T00:30:39.722Z,6.78
2022-07-26T00:33:09.767Z,7.43
2022-07-26T00:35:37.504Z,6.82
2022-07-26T00:38:05.019Z,7.03
2022-07-26T00:40:32.747Z,7.25
2022-07-26T00:43:02.735Z,7.35
2022-07-26T00:45:32.847Z,6.80
2022-07-26T00:48:02.085Z,8.00
2022-07-26T00:50:29.854Z,7.82
2022-07-26T00:52:57.383Z,6.65
2022-07-26T00:55:25.029Z,6.90
2022-07-26T00:57:52.659Z,7.00
2022-07-26T01:00:27.828Z,7.28
2022-07-26T01:02:56.842Z,7.00
2022-07-26T01:05:25.096Z,6.78
2022-07-26T01:07:53.702Z,7.35
2022-07-26T01:10:21.298Z,7.47
2022-07-26T01:12:49.097Z,9.00
2022-07-26T01:15:17.418Z,7.88
2022-07-26T01:17:45.740Z,7.30
2022-07-26T01:20:14.719Z,7.00
2022-07-26T01:22:42.317Z,7.22
2022-07-26T01:25:10.223Z,7.35
2022-07-26T01:27:41.324Z,7.80
2022-07-26T01:30:11.515Z,7.40
2022-07-26T01:32:39.570Z,6.97
2022-07-26T01:35:07.911Z,7.95
2022-07-26T01:37:35.515Z,7.15
2022-07-26T01:40:03.780Z,7.03
2022-07-26T01:42:32.423Z,7.80
2022-07-26T01:44:59.905Z,7.53
2022-07-26T01:47:28.292Z,7.53
2022-07-26T01:49:55.947Z,7.18
2022-07-26T01:52:23.467Z,7.40
2022-07-26T01:54:50.977Z,7.97
2022-07-26T01:57:18.757Z,8.00
2022-07-26T01:59:46.208Z,7.80
2022-07-26T02:02:13.849Z,7.88
2022-07-26T02:05:00.058Z,7.10
2022-07-26T02:07:33.692Z,7.10
2022-07-26T02:10:01.192Z,8.05
2022-07-26T02:12:31.067Z,8.10
2022-07-26T02:14:59.467Z,7.60
2022-07-26T02:17:27.048Z,7.82
2022-07-26T02:19:54.567Z,7.68
2022-07-26T02:22:22.064Z,7.38
2022-07-26T02:24:50.358Z,8.10
2022-07-26T02:27:21.212Z,8.20
2022-07-26T02:29:48.914Z,7.82
2022-07-26T02:32:16.589Z,7.78
2022-07-26T02:34:44.099Z,8.45
2022-07-26T02:37:11.638Z,7.88
2022-07-26T02:39:39.121Z,7.80
2022-07-26T02:42:06.662Z,7.72
2022-07-26T02:44:35.011Z,7.50
2022-07-26T02:47:03.350Z,7.30
2022-07-26T02:49:30.925Z,8.20
2022-07-26T02:51:58.567Z,7.75
2022-07-26T02:54:41.320Z,8.40
2022-07-26T02:57:08.872Z,8.80
2022-07-26T02:59:36.728Z,10.27
2022-07-26T03:02:04.361Z,7.78
2022-07-26T03:04:31.993Z,8.18
2022-07-26T03:06:59.488Z,8.18
2022-07-26T03:09:27.008Z,7.78
2022-07-26T03:11:54.539Z,7.10
2022-07-26T03:14:22.068Z,7.43
2022-07-26T03:16:49.659Z,7.47
2022-07-26T03:19:17.143Z,7.40
2022-07-26T03:21:44.710Z,7.60
2022-07-26T03:24:12.232Z,7.28
2022-07-26T03:26:39.928Z,7.05
2022-07-26T03:29:07.581Z,6.78
2022-07-26T03:31:36.281Z,7.55
2022-07-26T03:34:04.140Z,7.28
2022-07-26T03:36:31.925Z,7.18
2022-07-26T03:38:59.475Z,7.68
2022-07-26T03:41:27.047Z,8.20
2022-07-26T03:43:54.531Z,7.32
2022-07-26T03:46:22.037Z,7.80
2022-07-26T03:48:51.949Z,7.10
2022-07-26T03:51:19.464Z,8.32
2022-07-26T03:53:47.016Z,7.60
2022-07-26T03:56:31.706Z,8.07
2022-07-26T03:59:02.384Z,7.60
2022-07-26T04:01:30.838Z,7.18
2022-07-26T04:04:00.739Z,8.07
2022-07-26T04:06:28.987Z,7.68
2022-07-26T04:08:56.659Z,7.82
2022-07-26T04:11:28.694Z,7.28
2022-07-26T04:13:57.761Z,7.05
2022-07-26T04:16:25.855Z,7.70
2022-07-26T04:18:53.774Z,7.25
2022-07-26T04:21:21.328Z,7.60
2022-07-26T04:23:51.307Z,6.78
2022-07-26T04:26:21.451Z,7.45
2022-07-26T04:28:49.032Z,8.30
2022-07-26T04:31:16.836Z,8.02
2022-07-26T04:33:44.576Z,8.00
2022-07-26T04:36:12.232Z,8.30
2022-07-26T04:38:39.800Z,6.70
2022-07-26T04:41:07.463Z,7.38
2022-07-26T04:43:35.158Z,6.80
2022-07-26T04:46:02.997Z,6.97
2022-07-26T04:48:30.601Z,6.22
2022-07-26T04:50:58.118Z,6.55
2022-07-26T04:53:25.594Z,7.20
2022-07-26T04:55:53.290Z,6.47
2022-07-26T04:58:20.803Z,6.38
2022-07-26T05:01:08.946Z,8.75
2022-07-26T05:03:35.827Z,6.20
2022-07-26T05:06:03.338Z,5.88
2022-07-26T05:08:31.014Z,6.57
2022-07-26T05:10:58.572Z,5.57
2022-07-26T05:13:30.443Z,6.15
2022-07-26T05:16:00.226Z,6.20
2022-07-26T05:18:31.454Z,6.40
2022-07-26T05:20:59.756Z,5.93
2022-07-26T05:23:27.341Z,7.25
2022-07-26T05:25:55.512Z,6.75
2022-07-26T05:28:23.028Z,6.47
2022-07-26T05:30:50.971Z,5.90
2022-07-26T05:33:18.763Z,6.47
2022-07-26T05:35:46.452Z,6.28
2022-07-26T05:38:13.992Z,6.40
2022-07-26T05:40:41.497Z,6.45
2022-07-26T05:43:09.186Z,7.45
2022-07-26T05:45:36.749Z,6.20
2022-07-26T05:48:04.520Z,6.85
2022-07-26T05:50:33.148Z,6.63
2022-07-26T05:53:00.769Z,6.80
2022-07-26T05:55:28.806Z,6.88
2022-07-26T05:57:56.320Z,6.40
2022-07-26T06:00:23.979Z,6.50
2022-07-26T06:02:51.530Z,6.63
2022-07-26T06:05:19.134Z,6.57
2022-07-26T06:07:46.674Z,6.80
2022-07-26T06:10:14.175Z,6.88
2022-07-26T06:12:41.920Z,6.25
2022-07-26T06:15:15.680Z,6.90
2022-07-26T06:17:43.619Z,6.95
2022-07-26T06:20:11.426Z,6.78
2022-07-26T06:22:38.914Z,6.95
2022-07-26T06:25:06.956Z,6.75
2022-07-26T06:27:34.489Z,6.50
2022-07-26T06:30:02.122Z,5.93
2022-07-26T06:32:31.723Z,6.88
2022-07-26T06:34:59.241Z,6.20
2022-07-26T06:37:27.031Z,6.50
2022-07-26T06:39:54.527Z,6.20
2022-07-26T06:42:22.088Z,6.50
2022-07-26T06:44:49.567Z,6.85
2022-07-26T06:47:17.135Z,6.70
2022-07-26T06:49:45.124Z,6.20
2022-07-26T06:52:12.694Z,6.15
2022-07-26T06:54:40.215Z,5.75
2022-07-26T06:57:07.985Z,5.65
2022-07-26T06:59:35.670Z,5.50
2022-07-26T07:02:06.065Z,5.68
2022-07-26T07:04:34.113Z,5.28
2022-07-26T07:07:06.457Z,4.88
2022-07-26T07:09:35.306Z,5.93
2022-07-26T07:12:09.881Z,5.90
2022-07-26T07:14:39.211Z,6.05
2022-07-26T07:17:12.997Z,5.55
2022-07-26T07:19:42.633Z,5.32
2022-07-26T07:22:12.924Z,5.05
2022-07-26T07:24:44.345Z,5.43
2022-07-26T07:27:14.233Z,4.88
2022-07-26T07:29:43.938Z,4.75
2022-07-26T07:32:18.046Z,5.10
2022-07-26T07:34:47.914Z,5.00
2022-07-26T07:37:19.913Z,5.22
2022-07-26T07:39:50.747Z,5.15
2022-07-26T07:42:19.752Z,4.80
2022-07-26T07:44:47.660Z,4.95
2022-07-26T07:47:15.318Z,4.65
2022-07-26T07:49:43.516Z,4.18
2022-07-26T07:52:11.034Z,4.80
2022-07-26T07:54:38.644Z,5.10
2022-07-26T07:57:06.214Z,4.75
2022-07-26T07:59:33.894Z,4.95
2022-07-26T08:02:07.412Z,5.35
2022-07-26T08:04:35.658Z,5.65
2022-07-26T08:07:03.250Z,5.05
2022-07-26T08:09:30.851Z,5.35
2022-07-26T08:12:02.198Z,5.07
2022-07-26T08:14:29.992Z,5.05
2022-07-26T08:16:57.660Z,5.50
2022-07-26T08:19:26.162Z,4.88
2022-07-26T08:21:58.539Z,6.00
2022-07-26T08:24:26.580Z,5.72
2022-07-26T08:26:54.209Z,5.50
2022-07-26T08:29:21.859Z,5.80
2022-07-26T08:31:50.709Z,4.93
2022-07-26T08:34:18.633Z,4.63
2022-07-26T08:37:14.183Z,4.35
2022-07-26T08:39:33.742Z,4.70
2022-07-26T08:42:04.212Z,5.13
2022-07-26T08:44:31.802Z,4.55
2022-07-26T08:46:59.383Z,4.40
2022-07-26T08:49:26.973Z,4.72
2022-07-26T08:51:54.779Z,4.75
2022-07-26T08:54:22.404Z,4.40
2022-07-26T08:56:52.683Z,4.30
2022-07-26T08:59:23.418Z,4.60
2022-07-26T09:02:00.442Z,4.22
2022-07-26T09:04:33.833Z,4.32
2022-07-26T09:07:07.090Z,4.95
2022-07-26T09:09:37.595Z,4.18
2022-07-26T09:12:17.836Z,4.55
2022-07-26T09:14:48.788Z,4.75
2022-07-26T09:17:19.147Z,4.70
2022-07-26T09:20:02.362Z,4.45
2022-07-26T09:22:30.507Z,3.83
2022-07-26T09:24:59.247Z,4.68
2022-07-26T09:27:38.369Z,4.38
2022-07-26T09:30:08.777Z,4.80
2022-07-26T09:32:36.989Z,4.72
2022-07-26T09:35:45.844Z,4.07
2022-07-26T09:38:01.638Z,4.40
2022-07-26T09:40:35.298Z,4.43
2022-07-26T09:43:05.137Z,4.03
2022-07-26T09:45:35.843Z,4.35
2022-07-26T09:48:04.110Z,4.30
2022-07-26T09:50:33.187Z,4.85
2022-07-26T09:53:09.551Z,4.90
2022-07-26T09:55:55.439Z,5.47
2022-07-26T09:58:24.356Z,4.93
2022-07-26T10:00:52.111Z,5.20
2022-07-26T10:03:19.751Z,5.13
2022-07-26T10:05:47.314Z,5.47
2022-07-26T10:08:15.054Z,5.00
2022-07-26T10:10:47.864Z,5.53
2022-07-26T10:13:16.296Z,5.65
2022-07-26T10:15:49.486Z,5.95
2022-07-26T10:18:39.156Z,5.80
2022-07-26T10:21:16.932Z,5.50
2022-07-26T10:24:25.109Z,5.00
2022-07-26T10:26:52.598Z,5.30
2022-07-26T10:29:25.871Z,5.28
2022-07-26T10:32:04.015Z,5.20
2022-07-26T10:34:36.402Z,4.90
2022-07-26T10:37:09.257Z,4.55
2022-07-26T10:39:40.818Z,4.85
2022-07-26T10:42:10.563Z,4.88
2022-07-26T10:44:42.757Z,5.72
2022-07-26T10:47:15.775Z,5.45
2022-07-26T10:49:57.607Z,5.05
2022-07-26T10:52:32.434Z,5.65
2022-07-26T10:55:04.545Z,6.10
2022-07-26T10:57:34.306Z,5.80
2022-07-26T11:00:07.972Z,5.40
2022-07-26T11:02:36.203Z,6.13
2022-07-26T11:05:15.702Z,6.03
2022-07-26T11:08:10.746Z,5.68
2022-07-26T11:10:41.424Z,6.60
2022-07-26T11:13:13.356Z,5.72
2022-07-26T11:15:46.738Z,5.55
2022-07-26T11:18:21.273Z,5.43
2022-07-26T11:20:52.465Z,5.18
2022-07-26T11:23:34.277Z,4.95
2022-07-26T11:26:05.831Z,5.15
2022-07-26T11:28:47.230Z,4.55
2022-07-26T11:31:16.498Z,5.78
2022-07-26T11:33:50.898Z,5.35
2022-07-26T11:36:31.534Z,5.78
2022-07-26T11:39:01.076Z,5.78
2022-07-26T11:41:34.234Z,5.82
2022-07-26T11:44:04.233Z,6.35
2022-07-26T11:46:34.958Z,5.78
2022-07-26T11:49:02.896Z,6.28
2022-07-26T11:51:30.395Z,6.43
2022-07-26T11:54:00.770Z,6.53
2022-07-26T11:56:30.754Z,8.40
2022-07-26T11:59:01.342Z,6.50
2022-07-26T12:01:33.592Z,6.50
2022-07-26T12:04:01.294Z,6.38
2022-07-26T12:06:29.173Z,6.30
2022-07-26T12:08:58.574Z,6.70
2022-07-26T12:11:38.622Z,7.10
2022-07-26T12:14:06.296Z,7.75
2022-07-26T12:16:44.723Z,7.65
2022-07-26T12:19:20.347Z,8.13
2022-07-26T12:21:50.711Z,9.73
2022-07-26T12:24:39.776Z,7.30
2022-07-26T12:27:21.409Z,7.00
2022-07-26T12:30:13.397Z,7.03
2022-07-26T12:32:45.248Z,7.25
2022-07-26T12:35:17.236Z,8.07
2022-07-26T12:37:49.714Z,7.95
2022-07-26T12:40:18.596Z,7.43
2022-07-26T12:42:53.777Z,8.00
2022-07-26T12:45:27.812Z,7.93
2022-07-26T12:47:57.426Z,8.85
2022-07-26T12:50:27.048Z,9.05
2022-07-26T12:53:05.805Z,8.82
2022-07-26T12:55:34.115Z,7.72
2022-07-26T12:58:02.012Z,7.00
2022-07-26T13:00:30.077Z,6.82
2022-07-26T13:02:58.463Z,7.40
2022-07-26T13:05:26.294Z,10.15
2022-07-26T13:07:54.392Z,8.02
2022-07-26T13:10:33.243Z,8.32
2022-07-26T13:13:01.872Z,7.05
2022-07-26T13:15:36.229Z,6.70
2022-07-26T13:18:07.870Z,7.60
2022-07-26T13:20:38.732Z,6.57
2022-07-26T13:23:13.132Z,6.25
2022-07-26T13:25:43.562Z,5.32
2022-07-26T13:28:11.091Z,5.55
2022-07-26T13:30:41.181Z,6.25
2022-07-26T13:33:08.964Z,6.38
2022-07-26T13:35:39.382Z,5.43
2022-07-26T13:38:09.209Z,8.45
2022-07-26T13:40:36.743Z,8.63
2022-07-26T13:43:05.270Z,6.85
2022-07-26T13:45:32.825Z,9.27
2022-07-26T13:48:00.385Z,6.43
2022-07-26T13:50:28.531Z,7.35
2022-07-26T13:52:56.741Z,7.03
2022-07-26T13:55:25.618Z,6.82
2022-07-26T13:57:56.609Z,6.68
2022-07-26T14:00:27.195Z,6.85
2022-07-26T14:02:57.158Z,7.05
2022-07-26T14:05:26.955Z,7.35
2022-07-26T14:07:55.137Z,7.60
2022-07-26T14:10:24.169Z,7.70
2022-07-26T14:12:52.531Z,7.45
2022-07-26T14:15:23.104Z,7.88
2022-07-26T14:17:52.588Z,7.85
2022-07-26T14:20:21.710Z,7.93
2022-07-26T14:22:53.694Z,7.50
2022-07-26T14:25:26.822Z,10.70
2022-07-26T14:27:55.411Z,7.93
2022-07-26T14:30:23.220Z,9.38
2022-07-26T14:32:50.923Z,8.70
2022-07-26T14:35:18.558Z,8.18
2022-07-26T14:37:46.551Z,8.40
2022-07-26T14:40:16.260Z,9.05
2022-07-26T14:42:45.047Z,8.98
2022-07-26T14:45:13.858Z,9.23
2022-07-26T14:47:41.846Z,8.35
2022-07-26T14:50:10.771Z,8.93
2022-07-26T14:52:49.675Z,7.65
2022-07-26T14:55:21.674Z,8.02
2022-07-26T14:57:52.268Z,8.55
2022-07-26T15:00:19.994Z,7.85
2022-07-26T15:02:48.897Z,8.13
2022-07-26T15:05:17.243Z,7.53
2022-07-26T15:07:45.496Z,8.43
2022-07-26T15:10:14.455Z,7.25
2022-07-26T15:12:42.779Z,7.78
2022-07-26T15:15:11.280Z,7.57
2022-07-26T15:17:38.805Z,7.55
2022-07-26T15:20:07.138Z,7.43
2022-07-26T15:22:35.200Z,8.50
2022-07-26T15:25:02.760Z,11.88
2022-07-26T15:27:30.800Z,8.60
2022-07-26T15:30:03.513Z,10.70
2022-07-26T15:32:34.039Z,8.32
2022-07-26T15:35:02.167Z,8.70
2022-07-26T15:37:30.999Z,7.93
2022-07-26T15:39:58.811Z,8.10
2022-07-26T15:42:30.483Z,8.07
2022-07-26T15:44:58.579Z,9.50
2022-07-26T15:47:52.425Z,7.82
2022-07-26T15:50:16.517Z,6.80
2022-07-26T15:52:47.022Z,7.07
2022-07-26T15:55:16.983Z,6.93
2022-07-26T15:57:46.188Z,7.28
2022-07-26T16:00:15.527Z,7.28
2022-07-26T16:02:43.482Z,7.32
2022-07-26T16:05:11.991Z,7.47
2022-07-26T16:07:41.762Z,8.23
2022-07-26T16:10:14.261Z,9.65
2022-07-26T16:12:42.561Z,7.72
2022-07-26T16:15:11.868Z,7.78
2022-07-26T16:17:39.918Z,7.43
2022-07-26T16:20:08.693Z,7.43
2022-07-26T16:22:36.258Z,7.30
2022-07-26T16:25:06.038Z,6.90
2022-07-26T16:27:33.869Z,9.15
2022-07-26T16:30:01.339Z,8.43
2022-07-26T16:32:31.190Z,8.77
2022-07-26T16:34:58.891Z,7.80
2022-07-26T16:37:26.364Z,6.80
2022-07-26T16:39:55.685Z,7.30
2022-07-26T16:42:23.713Z,7.82
2022-07-26T16:44:51.724Z,6.88
2022-07-26T16:47:19.211Z,7.18
2022-07-26T16:49:46.804Z,6.88
2022-07-26T16:52:14.607Z,7.38
2022-07-26T16:54:42.590Z,7.53
2022-07-26T16:57:10.241Z,6.82
2022-07-26T16:59:37.837Z,6.47
2022-07-26T17:02:05.755Z,6.47
2022-07-26T17:04:35.815Z,6.50
2022-07-26T17:07:32.353Z,6.97
2022-07-26T17:09:51.262Z,6.57
2022-07-26T17:12:19.062Z,6.20
2022-07-26T17:14:46.723Z,7.30
2022-07-26T17:17:14.282Z,6.18
2022-07-26T17:19:41.926Z,6.50
2022-07-26T17:22:09.433Z,6.18
2022-07-26T17:24:36.974Z,7.05
2022-07-26T17:27:04.796Z,6.93
2022-07-26T17:29:32.324Z,6.43
2022-07-26T17:32:02.196Z,5.50
2022-07-26T17:34:29.833Z,6.28
2022-07-26T17:36:59.176Z,5.78
2022-07-26T17:39:47.500Z,6.25
2022-07-26T17:42:15.014Z,6.32
2022-07-26T17:44:42.535Z,6.32
2022-07-26T17:47:27.489Z,5.57
2022-07-26T17:49:57.184Z,6.75
2022-07-26T17:52:26.585Z,6.25
2022-07-26T17:54:55.784Z,6.75
2022-07-26T17:57:23.531Z,6.68
2022-07-26T17:59:51.109Z,6.65
2022-07-26T18:02:18.659Z,6.68
2022-07-26T18:04:46.370Z,7.20
2022-07-26T18:07:14.512Z,6.15
2022-07-26T18:09:42.050Z,6.97
2022-07-26T18:12:09.714Z,6.72
2022-07-26T18:14:38.598Z,6.85
2022-07-26T18:17:06.173Z,6.30
2022-07-26T18:19:33.670Z,6.57
2022-07-26T18:22:05.618Z,7.22
2022-07-26T18:24:33.839Z,6.68
2022-07-26T18:27:01.392Z,6.93
2022-07-26T18:29:28.957Z,6.35
2022-07-26T18:32:00.332Z,7.43
2022-07-26T18:34:28.595Z,7.53
2022-07-26T18:36:56.082Z,7.20
2022-07-26T18:39:23.675Z,8.35
2022-07-26T18:41:51.179Z,7.20
2022-07-26T18:44:18.849Z,8.07
2022-07-26T18:46:46.467Z,8.07
2022-07-26T18:49:19.799Z,7.45
2022-07-26T18:51:48.949Z,7.43
2022-07-26T18:54:17.953Z,7.15
2022-07-26T18:56:45.539Z,7.95
2022-07-26T18:59:13.578Z,7.43
2022-07-26T19:01:41.436Z,6.97
2022-07-26T19:04:09.137Z,7.18
2022-07-26T19:06:38.374Z,7.25
2022-07-26T19:09:06.481Z,7.80
2022-07-26T19:11:37.542Z,7.57
2022-07-26T19:14:05.537Z,7.80
2022-07-26T19:16:33.262Z,7.35
2022-07-26T19:19:00.828Z,7.90
2022-07-26T19:21:28.964Z,7.47
2022-07-26T19:23:56.582Z,7.90
2022-07-26T19:26:27.654Z,7.30
2022-07-26T19:28:55.241Z,7.35
2022-07-26T19:31:22.758Z,7.38
2022-07-26T19:33:50.294Z,7.13
2022-07-26T19:36:25.218Z,7.30
2022-07-26T19:38:56.720Z,7.07
2022-07-26T19:41:24.729Z,6.97
2022-07-26T19:43:52.198Z,7.13
2022-07-26T19:46:19.795Z,7.80
2022-07-26T19:48:47.458Z,8.10
2022-07-26T19:51:15.012Z,7.63
2022-07-26T19:53:44.754Z,8.73
2022-07-26T19:56:12.292Z,8.65
2022-07-26T19:58:40.021Z,9.07
2022-07-26T20:01:07.709Z,8.35
2022-07-26T20:03:35.430Z,8.70
2022-07-26T20:06:03.060Z,8.38
2022-07-26T20:08:30.560Z,7.95
2022-07-26T20:10:58.110Z,7.85
2022-07-26T20:13:25.636Z,7.88
2022-07-26T20:15:53.283Z,7.65
2022-07-26T20:18:24.925Z,7.47
2022-07-26T20:20:53.585Z,7.82
2022-07-26T20:23:21.103Z,7.15
2022-07-26T20:25:49.411Z,7.55
2022-07-26T20:28:17.322Z,8.32
2022-07-26T20:30:48.396Z,7.97
2022-07-26T20:33:19.322Z,7.90
2022-07-26T20:35:49.322Z,7.78
2022-07-26T20:38:20.705Z,8.43
2022-07-26T20:40:48.283Z,8.05
2022-07-26T20:43:15.786Z,8.48
2022-07-26T20:45:43.639Z,8.88
2022-07-26T20:48:11.209Z,8.05
2022-07-26T20:50:41.238Z,7.78
2022-07-26T20:53:09.014Z,8.73
2022-07-26T20:55:36.577Z,8.05
2022-07-26T20:58:04.498Z,8.43
2022-07-26T21:00:32.146Z,7.90
2022-07-26T21:03:00.336Z,7.55
2022-07-26T21:05:32.361Z,8.27
2022-07-26T21:08:00.350Z,9.07
2022-07-26T21:10:29.331Z,8.15
2022-07-26T21:13:00.286Z,8.38
2022-07-26T21:15:29.408Z,8.43
2022-07-26T21:17:57.998Z,8.43
2022-07-26T21:20:25.626Z,8.38
2022-07-26T21:22:53.185Z,8.27
2022-07-26T21:25:20.706Z,7.78
2022-07-26T21:27:48.322Z,8.30
2022-07-26T21:30:15.895Z,8.07
2022-07-26T21:32:46.320Z,9.05
2022-07-26T21:35:13.846Z,8.48
2022-07-26T21:37:44.858Z,7.80
2022-07-26T21:40:14.004Z,7.88
2022-07-26T21:42:41.474Z,8.23
2022-07-26T21:45:09.399Z,8.00
2022-07-26T21:47:36.946Z,7.80
2022-07-26T21:50:05.112Z,9.02
2022-07-26T21:52:32.583Z,7.80
2022-07-26T21:55:00.193Z,10.13
2022-07-26T21:57:27.682Z,8.40
2022-07-26T21:59:55.265Z,8.85
2022-07-26T22:02:23.244Z,8.48
2022-07-26T22:04:50.912Z,8.75
2022-07-26T22:07:18.452Z,8.13
2022-07-26T22:09:46.031Z,8.20
2022-07-26T22:12:13.507Z,10.20
2022-07-26T22:14:41.358Z,10.25
2022-07-26T22:17:08.873Z,9.38
2022-07-26T22:19:38.650Z,8.93
2022-07-26T22:22:06.219Z,8.45
2022-07-26T22:24:33.802Z,8.30
2022-07-26T22:27:01.363Z,9.20
2022-07-26T22:29:38.935Z,9.70
2022-07-26T22:32:07.834Z,8.40
2022-07-26T22:34:35.415Z,8.63
2022-07-26T22:37:03.059Z,9.43
2022-07-26T22:39:30.527Z,10.13
2022-07-26T22:42:14.874Z,10.02
2022-07-26T22:44:43.780Z,9.07
2022-07-26T22:47:11.315Z,9.48
2022-07-26T22:49:38.854Z,9.05
2022-07-26T22:52:06.422Z,8.60
2022-07-26T22:54:33.987Z,9.32
2022-07-26T22:57:01.439Z,9.32
2022-07-26T22:59:29.085Z,8.68
2022-07-26T23:01:59.322Z,9.90
2022-07-26T23:04:26.956Z,9.90
2022-07-26T23:06:55.956Z,9.68
2022-07-26T23:09:26.341Z,9.23
2022-07-26T23:11:53.978Z,9.32
2022-07-26T23:14:21.563Z,9.88
2022-07-26T23:16:49.113Z,9.98
2022-07-26T23:19:16.990Z,9.20
2022-07-26T23:21:44.591Z,9.52
2022-07-26T23:24:12.228Z,9.75
2022-07-26T23:26:39.721Z,10.13
2022-07-26T23:29:08.798Z,9.90
2022-07-26T23:31:38.282Z,10.20
2022-07-26T23:34:05.967Z,9.80
2022-07-26T23:36:33.604Z,9.32
2022-07-26T23:39:01.176Z,10.00
2022-07-26T23:41:29.033Z,8.93
2022-07-26T23:43:56.866Z,9.50
2022-07-26T23:46:25.467Z,10.80
2022-07-26T23:48:53.728Z,9.98
2022-07-26T23:51:23.121Z,9.63
2022-07-26T23:53:53.850Z,10.25
2022-07-26T23:56:21.479Z,9.60
2022-07-26T23:58:49.398Z,10.07
